sensor_id;sensor_type;location;lat;lon;timestamp;P1;durP1;ratioP1;P2;durP2;ratioP2
11191;SDS011;5652;48.406;10.820;2023-06-10T00:00:28;8.38;;;6.32;;
11191;SDS011;5652;48.406;10.820;2023-06-10T00:02:56;8.43;;;7.07;;
11191;SDS011;5652;48.406;10.820;2023-06-10T00:05:24;9.25;;;6.78;;
11191;SDS011;5652;48.406;10.820;2023-06-10T00:07:55;9.03;;;6.70;;
11191;SDS011;5652;48.406;10.820;2023-06-10T00:10:22;8.93;;;6.88;;
11191;SDS011;5652;48.406;10.820;2023-06-10T00:12:50;8.30;;;6.97;;
11191;SDS011;5652;48.406;10.820;2023-06-10T00:15:18;9.50;;;6.78;;
11191;SDS011;5652;48.406;10.820;2023-06-10T00:17:45;9.02;;;6.78;;
11191;SDS011;5652;48.406;10.820;2023-06-10T00:20:12;9.40;;;7.47;;
11191;SDS011;5652;48.406;10.820;2023-06-10T00:22:40;8.93;;;6.93;;
11191;SDS011;5652;48.406;10.820;2023-06-10T00:25:10;9.20;;;6.85;;
11191;SDS011;5652;48.406;10.820;2023-06-10T00:27:38;11.15;;;7.05;;
11191;SDS011;5652;48.406;10.820;2023-06-10T00:30:07;8.38;;;7.00;;
11191;SDS011;5652;48.406;10.820;2023-06-10T00:32:35;9.02;;;7.20;;
11191;SDS011;5652;48.406;10.820;2023-06-10T00:35:02;8.82;;;7.30;;
11191;SDS011;5652;48.406;10.820;2023-06-10T00:37:30;9.90;;;7.28;;
11191;SDS011;5652;48.406;10.820;2023-06-10T00:39:57;9.13;;;7.03;;
11191;SDS011;5652;48.406;10.820;2023-06-10T00:42:24;9.07;;;7.25;;
11191;SDS011;5652;48.406;10.820;2023-06-10T00:44:51;8.77;;;7.05;;
11191;SDS011;5652;48.406;10.820;2023-06-10T00:47:20;8.85;;;7.35;;
11191;SDS011;5652;48.406;10.820;2023-06-10T00:49:48;9.93;;;7.20;;
11191;SDS011;5652;48.406;10.820;2023-06-10T00:52:16;9.32;;;7.38;;
11191;SDS011;5652;48.406;10.820;2023-06-10T00:54:45;8.90;;;7.10;;
11191;SDS011;5652;48.406;10.820;2023-06-10T00:57:12;8.63;;;7.63;;
11191;SDS011;5652;48.406;10.820;2023-06-10T00:59:39;8.70;;;7.28;;
11191;SDS011;5652;48.406;10.820;2023-06-10T01:02:07;9.77;;;6.97;;
11191;SDS011;5652;48.406;10.820;2023-06-10T01:04:38;9.35;;;7.13;;
11191;SDS011;5652;48.406;10.820;2023-06-10T01:07:06;10.80;;;7.72;;
11191;SDS011;5652;48.406;10.820;2023-06-10T01:09:38;8.95;;;7.22;;
11191;SDS011;5652;48.406;10.820;2023-06-10T01:12:10;9.38;;;7.40;;
11191;SDS011;5652;48.406;10.820;2023-06-10T01:14:38;9.18;;;7.03;;
11191;SDS011;5652;48.406;10.820;2023-06-10T01:17:09;9.23;;;7.53;;
11191;SDS011;5652;48.406;10.820;2023-06-10T01:19:38;11.40;;;7.38;;
11191;SDS011;5652;48.406;10.820;2023-06-10T01:22:10;10.95;;;8.10;;
11191;SDS011;5652;48.406;10.820;2023-06-10T01:24:41;8.40;;;7.40;;
11191;SDS011;5652;48.406;10.820;2023-06-10T01:27:10;16.17;;;7.90;;
11191;SDS011;5652;48.406;10.820;2023-06-10T01:29:40;8.60;;;7.50;;
11191;SDS011;5652;48.406;10.820;2023-06-10T01:32:10;9.40;;;7.65;;
11191;SDS011;5652;48.406;10.820;2023-06-10T01:34:39;9.93;;;7.80;;
11191;SDS011;5652;48.406;10.820;2023-06-10T01:37:10;10.38;;;7.82;;
11191;SDS011;5652;48.406;10.820;2023-06-10T01:39:41;10.73;;;7.57;;
11191;SDS011;5652;48.406;10.820;2023-06-10T01:42:09;8.85;;;7.38;;
11191;SDS011;5652;48.406;10.820;2023-06-10T01:44:37;11.52;;;7.40;;
11191;SDS011;5652;48.406;10.820;2023-06-10T01:47:05;8.48;;;7.28;;
11191;SDS011;5652;48.406;10.820;2023-06-10T01:49:32;8.90;;;7.53;;
11191;SDS011;5652;48.406;10.820;2023-06-10T01:51:59;9.75;;;7.85;;
11191;SDS011;5652;48.406;10.820;2023-06-10T01:54:28;9.48;;;7.72;;
11191;SDS011;5652;48.406;10.820;2023-06-10T01:56:55;10.05;;;7.80;;
11191;SDS011;5652;48.406;10.820;2023-06-10T01:59:22;10.68;;;7.78;;
11191;SDS011;5652;48.406;10.820;2023-06-10T02:01:49;9.88;;;7.45;;
11191;SDS011;5652;48.406;10.820;2023-06-10T02:04:16;8.67;;;7.40;;
11191;SDS011;5652;48.406;10.820;2023-06-10T02:06:43;9.43;;;7.82;;
11191;SDS011;5652;48.406;10.820;2023-06-10T02:09:11;9.73;;;7.73;;
11191;SDS011;5652;48.406;10.820;2023-06-10T02:11:39;11.27;;;8.15;;
11191;SDS011;5652;48.406;10.820;2023-06-10T02:14:06;9.85;;;7.70;;
11191;SDS011;5652;48.406;10.820;2023-06-10T02:16:33;9.88;;;7.93;;
11191;SDS011;5652;48.406;10.820;2023-06-10T02:19:00;10.70;;;8.27;;
11191;SDS011;5652;48.406;10.820;2023-06-10T02:21:28;9.00;;;7.40;;
11191;SDS011;5652;48.406;10.820;2023-06-10T02:23:55;10.32;;;7.47;;
11191;SDS011;5652;48.406;10.820;2023-06-10T02:26:22;10.68;;;8.25;;
11191;SDS011;5652;48.406;10.820;2023-06-10T02:28:52;12.57;;;8.52;;
11191;SDS011;5652;48.406;10.820;2023-06-10T02:31:20;10.77;;;8.30;;
11191;SDS011;5652;48.406;10.820;2023-06-10T02:33:49;10.52;;;8.30;;
11191;SDS011;5652;48.406;10.820;2023-06-10T02:36:16;10.93;;;8.43;;
11191;SDS011;5652;48.406;10.820;2023-06-10T02:38:43;10.80;;;8.68;;
11191;SDS011;5652;48.406;10.820;2023-06-10T02:41:10;9.88;;;8.27;;
11191;SDS011;5652;48.406;10.820;2023-06-10T02:43:37;12.48;;;8.98;;
11191;SDS011;5652;48.406;10.820;2023-06-10T02:46:06;10.13;;;7.88;;
11191;SDS011;5652;48.406;10.820;2023-06-10T02:48:34;11.35;;;8.60;;
11191;SDS011;5652;48.406;10.820;2023-06-10T02:51:07;11.82;;;8.23;;
11191;SDS011;5652;48.406;10.820;2023-06-10T02:53:34;10.88;;;8.50;;
11191;SDS011;5652;48.406;10.820;2023-06-10T02:56:01;9.98;;;7.88;;
11191;SDS011;5652;48.406;10.820;2023-06-10T02:58:28;11.52;;;8.73;;
11191;SDS011;5652;48.406;10.820;2023-06-10T03:00:55;10.38;;;8.20;;
11191;SDS011;5652;48.406;10.820;2023-06-10T03:03:24;12.57;;;8.98;;
11191;SDS011;5652;48.406;10.820;2023-06-10T03:05:52;11.30;;;7.85;;
11191;SDS011;5652;48.406;10.820;2023-06-10T03:08:19;12.07;;;8.77;;
11191;SDS011;5652;48.406;10.820;2023-06-10T03:10:48;11.33;;;8.60;;
11191;SDS011;5652;48.406;10.820;2023-06-10T03:13:15;12.32;;;8.82;;
11191;SDS011;5652;48.406;10.820;2023-06-10T03:15:42;12.50;;;9.07;;
11191;SDS011;5652;48.406;10.820;2023-06-10T03:18:09;11.75;;;8.75;;
11191;SDS011;5652;48.406;10.820;2023-06-10T03:20:38;12.07;;;8.73;;
11191;SDS011;5652;48.406;10.820;2023-06-10T03:23:05;12.32;;;9.35;;
11191;SDS011;5652;48.406;10.820;2023-06-10T03:25:32;11.93;;;9.05;;
11191;SDS011;5652;48.406;10.820;2023-06-10T03:27:59;13.35;;;8.95;;
11191;SDS011;5652;48.406;10.820;2023-06-10T03:30:26;14.15;;;9.38;;
11191;SDS011;5652;48.406;10.820;2023-06-10T03:32:54;12.57;;;9.25;;
11191;SDS011;5652;48.406;10.820;2023-06-10T03:35:21;11.75;;;8.70;;
11191;SDS011;5652;48.406;10.820;2023-06-10T03:37:52;12.20;;;9.15;;
11191;SDS011;5652;48.406;10.820;2023-06-10T03:40:19;12.10;;;9.00;;
11191;SDS011;5652;48.406;10.820;2023-06-10T03:42:46;11.20;;;8.85;;
11191;SDS011;5652;48.406;10.820;2023-06-10T03:45:13;11.50;;;9.17;;
11191;SDS011;5652;48.406;10.820;2023-06-10T03:47:40;12.50;;;9.18;;
11191;SDS011;5652;48.406;10.820;2023-06-10T03:50:08;12.17;;;8.60;;
11191;SDS011;5652;48.406;10.820;2023-06-10T03:52:35;11.02;;;8.73;;
11191;SDS011;5652;48.406;10.820;2023-06-10T03:55:04;12.90;;;8.93;;
11191;SDS011;5652;48.406;10.820;2023-06-10T03:57:32;11.68;;;9.30;;
11191;SDS011;5652;48.406;10.820;2023-06-10T03:59:59;12.07;;;9.00;;
11191;SDS011;5652;48.406;10.820;2023-06-10T04:02:28;12.10;;;9.20;;
11191;SDS011;5652;48.406;10.820;2023-06-10T04:04:57;11.43;;;8.65;;
11191;SDS011;5652;48.406;10.820;2023-06-10T04:07:25;11.68;;;9.10;;
11191;SDS011;5652;48.406;10.820;2023-06-10T04:09:53;12.82;;;8.98;;
11191;SDS011;5652;48.406;10.820;2023-06-10T04:12:21;11.00;;;8.68;;
11191;SDS011;5652;48.406;10.820;2023-06-10T04:14:48;10.85;;;8.55;;
11191;SDS011;5652;48.406;10.820;2023-06-10T04:17:16;14.02;;;8.95;;
11191;SDS011;5652;48.406;10.820;2023-06-10T04:19:43;12.77;;;8.90;;
11191;SDS011;5652;48.406;10.820;2023-06-10T04:22:10;12.67;;;8.77;;
11191;SDS011;5652;48.406;10.820;2023-06-10T04:24:37;11.27;;;8.43;;
11191;SDS011;5652;48.406;10.820;2023-06-10T04:27:05;10.88;;;8.20;;
11191;SDS011;5652;48.406;10.820;2023-06-10T04:29:33;11.13;;;8.20;;
11191;SDS011;5652;48.406;10.820;2023-06-10T04:32:01;10.20;;;8.33;;
11191;SDS011;5652;48.406;10.820;2023-06-10T04:34:28;11.27;;;8.32;;
11191;SDS011;5652;48.406;10.820;2023-06-10T04:36:55;11.30;;;8.10;;
11191;SDS011;5652;48.406;10.820;2023-06-10T04:39:22;10.67;;;7.70;;
11191;SDS011;5652;48.406;10.820;2023-06-10T04:41:49;11.90;;;8.40;;
11191;SDS011;5652;48.406;10.820;2023-06-10T04:44:17;11.98;;;8.13;;
11191;SDS011;5652;48.406;10.820;2023-06-10T04:46:45;11.23;;;8.18;;
11191;SDS011;5652;48.406;10.820;2023-06-10T04:49:13;11.93;;;8.05;;
11191;SDS011;5652;48.406;10.820;2023-06-10T04:51:40;10.23;;;7.95;;
11191;SDS011;5652;48.406;10.820;2023-06-10T04:54:07;9.25;;;7.88;;
11191;SDS011;5652;48.406;10.820;2023-06-10T04:56:34;10.25;;;7.95;;
11191;SDS011;5652;48.406;10.820;2023-06-10T04:59:01;11.77;;;8.20;;
11191;SDS011;5652;48.406;10.820;2023-06-10T05:01:29;11.50;;;7.78;;
11191;SDS011;5652;48.406;10.820;2023-06-10T05:03:57;15.15;;;7.95;;
11191;SDS011;5652;48.406;10.820;2023-06-10T05:06:24;14.82;;;8.15;;
11191;SDS011;5652;48.406;10.820;2023-06-10T05:08:51;17.08;;;8.32;;
11191;SDS011;5652;48.406;10.820;2023-06-10T05:11:18;17.48;;;8.43;;
11191;SDS011;5652;48.406;10.820;2023-06-10T05:13:45;13.23;;;8.25;;
11191;SDS011;5652;48.406;10.820;2023-06-10T05:16:12;15.00;;;7.83;;
11191;SDS011;5652;48.406;10.820;2023-06-10T05:18:40;11.85;;;7.68;;
11191;SDS011;5652;48.406;10.820;2023-06-10T05:21:08;12.45;;;7.72;;
11191;SDS011;5652;48.406;10.820;2023-06-10T05:23:35;10.23;;;7.50;;
11191;SDS011;5652;48.406;10.820;2023-06-10T05:26:02;9.48;;;7.05;;
11191;SDS011;5652;48.406;10.820;2023-06-10T05:28:29;8.70;;;7.10;;
11191;SDS011;5652;48.406;10.820;2023-06-10T05:30:56;9.13;;;7.28;;
11191;SDS011;5652;48.406;10.820;2023-06-10T05:33:23;8.80;;;7.03;;
11191;SDS011;5652;48.406;10.820;2023-06-10T05:35:50;8.80;;;6.60;;
11191;SDS011;5652;48.406;10.820;2023-06-10T05:38:19;8.60;;;6.72;;
11191;SDS011;5652;48.406;10.820;2023-06-10T05:40:46;8.13;;;6.33;;
11191;SDS011;5652;48.406;10.820;2023-06-10T05:43:13;10.50;;;6.28;;
11191;SDS011;5652;48.406;10.820;2023-06-10T05:45:41;7.90;;;6.43;;
11191;SDS011;5652;48.406;10.820;2023-06-10T05:48:08;7.45;;;5.95;;
11191;SDS011;5652;48.406;10.820;2023-06-10T05:50:35;7.77;;;6.17;;
11191;SDS011;5652;48.406;10.820;2023-06-10T05:53:05;8.57;;;5.80;;
11191;SDS011;5652;48.406;10.820;2023-06-10T05:55:34;8.63;;;6.10;;
11191;SDS011;5652;48.406;10.820;2023-06-10T05:58:01;8.07;;;5.70;;
11191;SDS011;5652;48.406;10.820;2023-06-10T06:00:28;7.15;;;5.90;;
11191;SDS011;5652;48.406;10.820;2023-06-10T06:02:55;7.30;;;6.00;;
11191;SDS011;5652;48.406;10.820;2023-06-10T06:05:23;6.57;;;5.65;;
11191;SDS011;5652;48.406;10.820;2023-06-10T06:07:51;6.47;;;5.35;;
11191;SDS011;5652;48.406;10.820;2023-06-10T06:10:18;6.95;;;5.80;;
11191;SDS011;5652;48.406;10.820;2023-06-10T06:12:46;7.17;;;5.80;;
11191;SDS011;5652;48.406;10.820;2023-06-10T06:15:13;6.15;;;5.30;;
11191;SDS011;5652;48.406;10.820;2023-06-10T06:17:40;7.43;;;5.47;;
11191;SDS011;5652;48.406;10.820;2023-06-10T06:20:08;6.90;;;5.45;;
11191;SDS011;5652;48.406;10.820;2023-06-10T06:22:35;7.07;;;5.78;;
11191;SDS011;5652;48.406;10.820;2023-06-10T06:25:02;6.50;;;5.45;;
11191;SDS011;5652;48.406;10.820;2023-06-10T06:27:29;7.00;;;5.85;;
11191;SDS011;5652;48.406;10.820;2023-06-10T06:29:58;7.32;;;5.40;;
11191;SDS011;5652;48.406;10.820;2023-06-10T06:32:25;6.85;;;5.78;;
11191;SDS011;5652;48.406;10.820;2023-06-10T06:34:52;7.20;;;5.65;;
11191;SDS011;5652;48.406;10.820;2023-06-10T06:37:20;7.57;;;6.00;;
11191;SDS011;5652;48.406;10.820;2023-06-10T06:39:48;6.85;;;5.95;;
11191;SDS011;5652;48.406;10.820;2023-06-10T06:42:15;6.47;;;5.72;;
11191;SDS011;5652;48.406;10.820;2023-06-10T06:44:42;6.50;;;5.40;;
11191;SDS011;5652;48.406;10.820;2023-06-10T06:47:11;7.53;;;5.93;;
11191;SDS011;5652;48.406;10.820;2023-06-10T06:49:38;7.72;;;5.80;;
11191;SDS011;5652;48.406;10.820;2023-06-10T06:52:05;7.57;;;5.28;;
11191;SDS011;5652;48.406;10.820;2023-06-10T06:54:32;7.28;;;5.78;;
11191;SDS011;5652;48.406;10.820;2023-06-10T06:57:00;7.32;;;5.57;;
11191;SDS011;5652;48.406;10.820;2023-06-10T06:59:27;7.18;;;5.60;;
11191;SDS011;5652;48.406;10.820;2023-06-10T07:01:54;6.75;;;5.50;;
11191;SDS011;5652;48.406;10.820;2023-06-10T07:04:22;7.32;;;5.88;;
11191;SDS011;5652;48.406;10.820;2023-06-10T07:06:49;7.65;;;5.60;;
11191;SDS011;5652;48.406;10.820;2023-06-10T07:09:17;7.15;;;5.82;;
11191;SDS011;5652;48.406;10.820;2023-06-10T07:11:44;6.47;;;5.07;;
11191;SDS011;5652;48.406;10.820;2023-06-10T07:14:11;7.18;;;5.47;;
11191;SDS011;5652;48.406;10.820;2023-06-10T07:16:38;6.20;;;5.30;;
11191;SDS011;5652;48.406;10.820;2023-06-10T07:19:05;5.90;;;5.30;;
11191;SDS011;5652;48.406;10.820;2023-06-10T07:21:33;6.35;;;5.15;;
11191;SDS011;5652;48.406;10.820;2023-06-10T07:24:01;5.82;;;5.10;;
11191;SDS011;5652;48.406;10.820;2023-06-10T07:26:28;6.50;;;5.70;;
11191;SDS011;5652;48.406;10.820;2023-06-10T07:28:55;6.65;;;5.20;;
11191;SDS011;5652;48.406;10.820;2023-06-10T07:31:22;5.25;;;4.72;;
11191;SDS011;5652;48.406;10.820;2023-06-10T07:33:50;5.35;;;4.80;;
11191;SDS011;5652;48.406;10.820;2023-06-10T07:36:17;6.72;;;4.75;;
11191;SDS011;5652;48.406;10.820;2023-06-10T07:38:46;6.50;;;5.80;;
11191;SDS011;5652;48.406;10.820;2023-06-10T07:41:13;7.50;;;5.13;;
11191;SDS011;5652;48.406;10.820;2023-06-10T07:43:42;5.55;;;4.40;;
11191;SDS011;5652;48.406;10.820;2023-06-10T07:46:10;5.55;;;4.45;;
11191;SDS011;5652;48.406;10.820;2023-06-10T07:48:37;5.43;;;4.40;;
11191;SDS011;5652;48.406;10.820;2023-06-10T07:51:04;4.50;;;4.00;;
11191;SDS011;5652;48.406;10.820;2023-06-10T07:53:31;5.55;;;4.38;;
11191;SDS011;5652;48.406;10.820;2023-06-10T07:55:59;5.80;;;4.30;;
11191;SDS011;5652;48.406;10.820;2023-06-10T07:58:26;4.93;;;4.03;;
11191;SDS011;5652;48.406;10.820;2023-06-10T08:00:53;4.53;;;3.90;;
11191;SDS011;5652;48.406;10.820;2023-06-10T08:03:20;5.85;;;4.00;;
11191;SDS011;5652;48.406;10.820;2023-06-10T08:05:48;4.50;;;3.80;;
11191;SDS011;5652;48.406;10.820;2023-06-10T08:08:15;5.78;;;4.30;;
11191;SDS011;5652;48.406;10.820;2023-06-10T08:10:42;5.32;;;3.92;;
11191;SDS011;5652;48.406;10.820;2023-06-10T08:13:10;5.18;;;4.43;;
11191;SDS011;5652;48.406;10.820;2023-06-10T08:15:37;4.47;;;3.83;;
11191;SDS011;5652;48.406;10.820;2023-06-10T08:18:04;4.72;;;4.10;;
11191;SDS011;5652;48.406;10.820;2023-06-10T08:20:31;5.22;;;4.32;;
11191;SDS011;5652;48.406;10.820;2023-06-10T08:22:59;4.60;;;3.90;;
11191;SDS011;5652;48.406;10.820;2023-06-10T08:25:26;6.03;;;4.05;;
11191;SDS011;5652;48.406;10.820;2023-06-10T08:27:53;6.78;;;4.25;;
11191;SDS011;5652;48.406;10.820;2023-06-10T08:30:22;6.47;;;4.38;;
11191;SDS011;5652;48.406;10.820;2023-06-10T08:32:50;5.10;;;4.60;;
11191;SDS011;5652;48.406;10.820;2023-06-10T08:35:17;5.85;;;4.20;;
11191;SDS011;5652;48.406;10.820;2023-06-10T08:37:44;5.10;;;4.10;;
11191;SDS011;5652;48.406;10.820;2023-06-10T08:40:12;4.90;;;4.38;;
11191;SDS011;5652;48.406;10.820;2023-06-10T08:42:40;5.80;;;4.30;;
11191;SDS011;5652;48.406;10.820;2023-06-10T08:45:11;5.00;;;4.30;;
11191;SDS011;5652;48.406;10.820;2023-06-10T08:47:43;5.75;;;4.57;;
11191;SDS011;5652;48.406;10.820;2023-06-10T08:50:11;4.43;;;4.03;;
11191;SDS011;5652;48.406;10.820;2023-06-10T08:52:40;4.47;;;4.07;;
11191;SDS011;5652;48.406;10.820;2023-06-10T08:55:10;5.03;;;4.28;;
11191;SDS011;5652;48.406;10.820;2023-06-10T08:57:37;4.23;;;3.83;;
11191;SDS011;5652;48.406;10.820;2023-06-10T09:00:05;4.80;;;4.13;;
11191;SDS011;5652;48.406;10.820;2023-06-10T09:02:33;5.15;;;4.38;;
11191;SDS011;5652;48.406;10.820;2023-06-10T09:05:02;5.68;;;4.03;;
11191;SDS011;5652;48.406;10.820;2023-06-10T09:07:30;4.80;;;3.90;;
11191;SDS011;5652;48.406;10.820;2023-06-10T09:09:59;4.38;;;3.90;;
11191;SDS011;5652;48.406;10.820;2023-06-10T09:12:28;5.80;;;4.10;;
11191;SDS011;5652;48.406;10.820;2023-06-10T09:14:56;4.32;;;3.92;;
11191;SDS011;5652;48.406;10.820;2023-06-10T09:17:23;4.32;;;3.92;;
11191;SDS011;5652;48.406;10.820;2023-06-10T09:19:51;4.40;;;4.00;;
11191;SDS011;5652;48.406;10.820;2023-06-10T09:22:21;4.57;;;4.05;;
11191;SDS011;5652;48.406;10.820;2023-06-10T09:24:48;5.03;;;3.80;;
11191;SDS011;5652;48.406;10.820;2023-06-10T09:27:16;5.17;;;4.10;;
11191;SDS011;5652;48.406;10.820;2023-06-10T09:29:46;5.03;;;3.88;;
11191;SDS011;5652;48.406;10.820;2023-06-10T09:32:14;5.00;;;3.80;;
11191;SDS011;5652;48.406;10.820;2023-06-10T09:34:41;5.43;;;3.58;;
11191;SDS011;5652;48.406;10.820;2023-06-10T09:37:08;3.90;;;3.50;;
11191;SDS011;5652;48.406;10.820;2023-06-10T09:39:38;3.90;;;3.47;;
11191;SDS011;5652;48.406;10.820;2023-06-10T09:42:15;3.80;;;3.40;;
11191;SDS011;5652;48.406;10.820;2023-06-10T09:44:48;4.18;;;3.75;;
11191;SDS011;5652;48.406;10.820;2023-06-10T09:47:19;4.87;;;4.00;;
11191;SDS011;5652;48.406;10.820;2023-06-10T09:49:46;4.70;;;4.07;;
11191;SDS011;5652;48.406;10.820;2023-06-10T09:52:13;4.10;;;3.60;;
11191;SDS011;5652;48.406;10.820;2023-06-10T09:54:41;4.32;;;3.60;;
11191;SDS011;5652;48.406;10.820;2023-06-10T09:57:11;4.53;;;4.00;;
11191;SDS011;5652;48.406;10.820;2023-06-10T09:59:39;5.03;;;4.25;;
11191;SDS011;5652;48.406;10.820;2023-06-10T10:02:06;4.43;;;3.60;;
11191;SDS011;5652;48.406;10.820;2023-06-10T10:04:39;5.22;;;3.97;;
11191;SDS011;5652;48.406;10.820;2023-06-10T10:07:07;5.00;;;3.80;;
11191;SDS011;5652;48.406;10.820;2023-06-10T10:09:35;6.20;;;4.30;;
11191;SDS011;5652;48.406;10.820;2023-06-10T10:12:03;4.88;;;4.20;;
11191;SDS011;5652;48.406;10.820;2023-06-10T10:14:32;7.57;;;4.38;;
11191;SDS011;5652;48.406;10.820;2023-06-10T10:17:00;4.40;;;3.53;;
11191;SDS011;5652;48.406;10.820;2023-06-10T10:19:28;4.70;;;3.90;;
11191;SDS011;5652;48.406;10.820;2023-06-10T10:22:08;4.63;;;3.75;;
11191;SDS011;5652;48.406;10.820;2023-06-10T10:24:38;4.20;;;3.80;;
11191;SDS011;5652;48.406;10.820;2023-06-10T10:27:07;4.18;;;3.78;;
11191;SDS011;5652;48.406;10.820;2023-06-10T10:29:38;4.38;;;3.97;;
11191;SDS011;5652;48.406;10.820;2023-06-10T10:32:06;4.90;;;4.40;;
11191;SDS011;5652;48.406;10.820;2023-06-10T10:34:35;6.10;;;4.40;;
11191;SDS011;5652;48.406;10.820;2023-06-10T10:37:03;4.93;;;4.20;;
11191;SDS011;5652;48.406;10.820;2023-06-10T10:39:30;7.13;;;4.43;;
11191;SDS011;5652;48.406;10.820;2023-06-10T10:42:00;5.73;;;4.20;;
11191;SDS011;5652;48.406;10.820;2023-06-10T10:44:30;4.40;;;3.53;;
11191;SDS011;5652;48.406;10.820;2023-06-10T10:46:57;3.58;;;3.28;;
11191;SDS011;5652;48.406;10.820;2023-06-10T10:49:29;3.92;;;3.53;;
11191;SDS011;5652;48.406;10.820;2023-06-10T10:51:56;4.20;;;3.80;;
11191;SDS011;5652;48.406;10.820;2023-06-10T10:54:30;3.80;;;3.50;;
11191;SDS011;5652;48.406;10.820;2023-06-10T10:57:10;4.85;;;4.00;;
11191;SDS011;5652;48.406;10.820;2023-06-10T10:59:46;5.22;;;3.70;;
11191;SDS011;5652;48.406;10.820;2023-06-10T11:02:16;4.22;;;3.83;;
11191;SDS011;5652;48.406;10.820;2023-06-10T11:04:44;4.10;;;3.70;;
11191;SDS011;5652;48.406;10.820;2023-06-10T11:07:11;4.15;;;3.58;;
11191;SDS011;5652;48.406;10.820;2023-06-10T11:09:42;4.13;;;3.73;;
11191;SDS011;5652;48.406;10.820;2023-06-10T11:12:24;5.13;;;3.60;;
11191;SDS011;5652;48.406;10.820;2023-06-10T11:14:55;4.75;;;4.25;;
11191;SDS011;5652;48.406;10.820;2023-06-10T11:17:22;4.07;;;3.47;;
11191;SDS011;5652;48.406;10.820;2023-06-10T11:19:49;4.03;;;3.50;;
11191;SDS011;5652;48.406;10.820;2023-06-10T11:22:16;4.53;;;3.90;;
11191;SDS011;5652;48.406;10.820;2023-06-10T11:24:47;4.88;;;3.80;;
11191;SDS011;5652;48.406;10.820;2023-06-10T11:27:14;4.20;;;3.80;;
11191;SDS011;5652;48.406;10.820;2023-06-10T11:29:56;7.22;;;3.60;;
11191;SDS011;5652;48.406;10.820;2023-06-10T11:32:23;5.22;;;3.38;;
11191;SDS011;5652;48.406;10.820;2023-06-10T11:34:51;4.47;;;3.77;;
11191;SDS011;5652;48.406;10.820;2023-06-10T11:37:19;5.45;;;3.75;;
11191;SDS011;5652;48.406;10.820;2023-06-10T11:39:46;5.85;;;4.18;;
11191;SDS011;5652;48.406;10.820;2023-06-10T11:42:13;4.00;;;3.50;;
11191;SDS011;5652;48.406;10.820;2023-06-10T11:44:47;5.30;;;3.65;;
11191;SDS011;5652;48.406;10.820;2023-06-10T11:47:15;4.47;;;3.58;;
11191;SDS011;5652;48.406;10.820;2023-06-10T11:49:42;4.13;;;3.50;;
11191;SDS011;5652;48.406;10.820;2023-06-10T11:52:09;4.38;;;3.95;;
11191;SDS011;5652;48.406;10.820;2023-06-10T11:54:37;5.07;;;3.70;;
11191;SDS011;5652;48.406;10.820;2023-06-10T11:57:04;5.07;;;3.30;;
11191;SDS011;5652;48.406;10.820;2023-06-10T11:59:33;4.22;;;3.70;;
11191;SDS011;5652;48.406;10.820;2023-06-10T12:02:00;5.18;;;3.47;;
11191;SDS011;5652;48.406;10.820;2023-06-10T12:04:29;5.00;;;3.55;;
11191;SDS011;5652;48.406;10.820;2023-06-10T12:06:56;3.50;;;3.20;;
11191;SDS011;5652;48.406;10.820;2023-06-10T12:09:23;4.07;;;3.65;;
11191;SDS011;5652;48.406;10.820;2023-06-10T12:11:51;5.25;;;3.97;;
11191;SDS011;5652;48.406;10.820;2023-06-10T12:17:04;4.32;;;3.67;;
11191;SDS011;5652;48.406;10.820;2023-06-10T12:19:33;5.75;;;4.00;;
11191;SDS011;5652;48.406;10.820;2023-06-10T12:22:04;4.97;;;3.90;;
11191;SDS011;5652;48.406;10.820;2023-06-10T12:24:32;5.80;;;3.83;;
11191;SDS011;5652;48.406;10.820;2023-06-10T12:27:00;5.20;;;3.93;;
11191;SDS011;5652;48.406;10.820;2023-06-10T12:29:27;4.68;;;3.75;;
11191;SDS011;5652;48.406;10.820;2023-06-10T12:31:58;5.38;;;4.10;;
11191;SDS011;5652;48.406;10.820;2023-06-10T12:34:34;4.65;;;3.88;;
11191;SDS011;5652;48.406;10.820;2023-06-10T12:37:01;6.05;;;3.65;;
11191;SDS011;5652;48.406;10.820;2023-06-10T12:39:29;4.38;;;3.70;;
11191;SDS011;5652;48.406;10.820;2023-06-10T12:41:57;3.97;;;3.50;;
11191;SDS011;5652;48.406;10.820;2023-06-10T12:44:33;5.53;;;3.70;;
11191;SDS011;5652;48.406;10.820;2023-06-10T12:47:00;4.73;;;3.87;;
11191;SDS011;5652;48.406;10.820;2023-06-10T12:49:28;4.40;;;4.00;;
11191;SDS011;5652;48.406;10.820;2023-06-10T12:51:56;3.90;;;3.60;;
11191;SDS011;5652;48.406;10.820;2023-06-10T12:54:23;3.80;;;3.40;;
11191;SDS011;5652;48.406;10.820;2023-06-10T12:56:51;5.20;;;3.38;;
11191;SDS011;5652;48.406;10.820;2023-06-10T12:59:18;4.05;;;3.20;;
11191;SDS011;5652;48.406;10.820;2023-06-10T13:01:49;3.80;;;3.42;;
11191;SDS011;5652;48.406;10.820;2023-06-10T13:04:16;4.03;;;3.63;;
11191;SDS011;5652;48.406;10.820;2023-06-10T13:06:44;4.45;;;3.25;;
11191;SDS011;5652;48.406;10.820;2023-06-10T13:09:13;6.00;;;3.80;;
11191;SDS011;5652;48.406;10.820;2023-06-10T13:11:40;3.92;;;3.50;;
11191;SDS011;5652;48.406;10.820;2023-06-10T13:14:07;4.25;;;3.65;;
11191;SDS011;5652;48.406;10.820;2023-06-10T13:16:35;5.30;;;3.50;;
11191;SDS011;5652;48.406;10.820;2023-06-10T13:19:03;4.32;;;3.40;;
11191;SDS011;5652;48.406;10.820;2023-06-10T13:21:30;3.85;;;3.13;;
11191;SDS011;5652;48.406;10.820;2023-06-10T13:23:57;3.80;;;3.28;;
11191;SDS011;5652;48.406;10.820;2023-06-10T13:26:26;4.15;;;3.03;;
11191;SDS011;5652;48.406;10.820;2023-06-10T13:28:53;4.20;;;3.40;;
11191;SDS011;5652;48.406;10.820;2023-06-10T13:31:20;3.53;;;3.00;;
11191;SDS011;5652;48.406;10.820;2023-06-10T13:33:47;3.97;;;3.17;;
11191;SDS011;5652;48.406;10.820;2023-06-10T13:36:14;4.78;;;3.35;;
11191;SDS011;5652;48.406;10.820;2023-06-10T13:38:41;3.70;;;3.35;;
11191;SDS011;5652;48.406;10.820;2023-06-10T13:41:08;3.50;;;3.20;;
11191;SDS011;5652;48.406;10.820;2023-06-10T13:43:38;4.53;;;3.08;;
11191;SDS011;5652;48.406;10.820;2023-06-10T13:46:05;4.47;;;3.20;;
11191;SDS011;5652;48.406;10.820;2023-06-10T13:48:32;3.50;;;3.20;;
11191;SDS011;5652;48.406;10.820;2023-06-10T13:51:00;3.55;;;3.25;;
11191;SDS011;5652;48.406;10.820;2023-06-10T13:53:27;3.45;;;3.15;;
11191;SDS011;5652;48.406;10.820;2023-06-10T13:55:54;3.72;;;3.30;;
11191;SDS011;5652;48.406;10.820;2023-06-10T13:58:21;3.22;;;2.92;;
11191;SDS011;5652;48.406;10.820;2023-06-10T14:00:50;4.90;;;3.03;;
11191;SDS011;5652;48.406;10.820;2023-06-10T14:03:17;3.47;;;2.55;;
11191;SDS011;5652;48.406;10.820;2023-06-10T14:05:44;3.95;;;2.90;;
11191;SDS011;5652;48.406;10.820;2023-06-10T14:08:11;3.00;;;2.70;;
11191;SDS011;5652;48.406;10.820;2023-06-10T14:10:38;3.28;;;2.97;;
11191;SDS011;5652;48.406;10.820;2023-06-10T14:13:05;3.45;;;3.10;;
11191;SDS011;5652;48.406;10.820;2023-06-10T14:15:33;3.70;;;3.40;;
11191;SDS011;5652;48.406;10.820;2023-06-10T14:18:01;3.30;;;3.00;;
11191;SDS011;5652;48.406;10.820;2023-06-10T14:20:29;3.70;;;3.40;;
11191;SDS011;5652;48.406;10.820;2023-06-10T14:22:56;3.50;;;3.20;;
11191;SDS011;5652;48.406;10.820;2023-06-10T14:25:24;4.05;;;3.13;;
11191;SDS011;5652;48.406;10.820;2023-06-10T14:27:51;3.50;;;2.85;;
11191;SDS011;5652;48.406;10.820;2023-06-10T14:30:18;2.83;;;2.63;;
11191;SDS011;5652;48.406;10.820;2023-06-10T14:32:45;2.85;;;1.98;;
11191;SDS011;5652;48.406;10.820;2023-06-10T14:35:13;3.40;;;2.70;;
11191;SDS011;5652;48.406;10.820;2023-06-10T14:37:40;3.50;;;2.50;;
11191;SDS011;5652;48.406;10.820;2023-06-10T14:40:08;2.15;;;1.95;;
11191;SDS011;5652;48.406;10.820;2023-06-10T14:42:35;2.40;;;2.20;;
11191;SDS011;5652;48.406;10.820;2023-06-10T14:45:03;2.70;;;2.40;;
11191;SDS011;5652;48.406;10.820;2023-06-10T14:47:30;2.80;;;2.50;;
11191;SDS011;5652;48.406;10.820;2023-06-10T14:49:57;3.10;;;2.80;;
11191;SDS011;5652;48.406;10.820;2023-06-10T14:52:26;2.88;;;2.58;;